createdAt,value
2023-12-30T00:04:17.030Z,99779.63
2023-12-30T00:09:21.057Z,99774.56
2023-12-30T00:14:22.409Z,99773.50
2023-12-30T00:19:24.095Z,99767.88
2023-12-30T00:24:25.438Z,99773.56
2023-12-30T00:29:27.861Z,99770.59
2023-12-30T00:34:33.549Z,99761.59
2023-12-30T00:39:34.946Z,99779.78
2023-12-30T00:44:37.203Z,99778.97
2023-12-30T00:49:38.825Z,99775.91
2023-12-30T00:54:47.777Z,99786.53
2023-12-30T00:59:52.381Z,99791.16
2023-12-30T01:04:53.929Z,99784.53
2023-12-30T01:09:55.413Z,99790.13
2023-12-30T01:14:56.844Z,99773.94
2023-12-30T01:19:58.451Z,99793.59
2023-12-30T01:24:59.910Z,99802.41
2023-12-30T01:30:01.274Z,99810.25
2023-12-30T01:35:02.893Z,99814.72
2023-12-30T01:40:05.056Z,99835.72
2023-12-30T01:45:06.796Z,99823.44
2023-12-30T01:50:10.839Z,99828.25
2023-12-30T01:55:12.892Z,99834.78
2023-12-30T02:00:21.872Z,99832.69
2023-12-30T02:05:23.805Z,99848.75
2023-12-30T02:10:25.431Z,99862.06
2023-12-30T02:15:27.109Z,99861.47
2023-12-30T02:20:29.112Z,99859.06
2023-12-30T02:25:32.119Z,99844.47
2023-12-30T02:30:33.596Z,99835.06
2023-12-30T02:35:35.080Z,99842.78
2023-12-30T02:40:36.465Z,99845.69
2023-12-30T02:45:37.826Z,99843.50
2023-12-30T02:50:39.426Z,99845.69
2023-12-30T02:55:43.134Z,99852.97
2023-12-30T03:00:44.619Z,99847.28
2023-12-30T03:05:46.449Z,99860.22
2023-12-30T03:10:48.648Z,99865.28
2023-12-30T03:15:50.771Z,99870.84
2023-12-30T03:20:53.382Z,99855.25
2023-12-30T03:25:54.711Z,99876.81
2023-12-30T03:30:56.186Z,99867.94
2023-12-30T03:35:57.707Z,99890.72
2023-12-30T03:40:59.798Z,99891.84
2023-12-30T03:46:01.184Z,99874.22
2023-12-30T03:51:02.550Z,99894.97
2023-12-30T03:56:04.239Z,99896.22
2023-12-30T04:01:06.181Z,99886.09
2023-12-30T04:06:07.854Z,99902.94
2023-12-30T04:11:10.102Z,99894.28
2023-12-30T04:16:11.715Z,99894.97
2023-12-30T04:21:13.075Z,99895.41
2023-12-30T04:26:14.473Z,99905.09
2023-12-30T04:31:16.057Z,99910.28
2023-12-30T04:36:17.442Z,99904.88
2023-12-30T04:41:19.119Z,99910.41
2023-12-30T04:46:20.427Z,99907.16
2023-12-30T04:51:22.836Z,99919.72
2023-12-30T04:56:26.612Z,99924.91
2023-12-30T05:01:30.418Z,99928.28
2023-12-30T05:06:32.141Z,99928.75
2023-12-30T05:11:33.530Z,99941.19
2023-12-30T05:16:43.375Z,99943.84
2023-12-30T05:21:44.683Z,99951.22
2023-12-30T05:26:48.655Z,99941.09
2023-12-30T05:31:50.135Z,99958.72
2023-12-30T05:36:51.472Z,99954.88
2023-12-30T05:41:54.689Z,99963.28
2023-12-30T05:46:56.035Z,99964.50
2023-12-30T05:51:58.551Z,99966.69
2023-12-30T05:57:01.555Z,99975.38
2023-12-30T06:02:04.045Z,99992.78
2023-12-30T06:07:07.833Z,99994.19
2023-12-30T06:12:10.092Z,99969.38
2023-12-30T06:17:12.228Z,100005.69
2023-12-30T06:22:13.631Z,100003.50
2023-12-30T06:27:15.242Z,100016.66
2023-12-30T06:32:16.687Z,99988.66
2023-12-30T06:37:18.125Z,100011.09
2023-12-30T06:42:19.663Z,100011.59
2023-12-30T06:47:23.411Z,100025.75
2023-12-30T06:52:24.943Z,100040.44
2023-12-30T06:57:26.557Z,100039.63
2023-12-30T07:02:28.966Z,100039.63
2023-12-30T07:07:30.462Z,100040.69
2023-12-30T07:12:32.014Z,100042.66
2023-12-30T07:17:33.378Z,100058.22
2023-12-30T07:22:35.033Z,100052.00
2023-12-30T07:27:39.355Z,100066.00
2023-12-30T07:32:40.873Z,100065.75
2023-12-30T07:43:09.555Z,100040.16
2023-12-30T07:48:11.165Z,100066.94
2023-12-30T07:53:12.545Z,100071.03
2023-12-30T07:58:15.171Z,100082.16
2023-12-30T08:03:16.841Z,100083.59
2023-12-30T08:08:18.675Z,100086.97
2023-12-30T08:13:20.484Z,100083.22
2023-12-30T08:18:23.667Z,100074.16
2023-12-30T08:23:25.135Z,100075.13
2023-12-30T08:28:27.888Z,100076.34
2023-12-30T08:33:29.783Z,100090.59
2023-12-30T08:38:33.216Z,100083.09
2023-12-30T08:43:35.005Z,100095.91
2023-12-30T08:48:37.053Z,100085.16
2023-12-30T08:53:38.699Z,100086.59
2023-12-30T08:58:40.537Z,100085.16
2023-12-30T09:03:42.093Z,100081.16
2023-12-30T09:08:43.484Z,100096.63
2023-12-30T09:13:44.851Z,100090.09
2023-12-30T09:18:47.029Z,100096.63
2023-12-30T09:23:49.096Z,100112.44
2023-12-30T09:34:20.925Z,100142.41
2023-12-30T09:39:28.138Z,100144.19
2023-12-30T09:44:29.970Z,100155.38
2023-12-30T09:49:35.394Z,100155.81
2023-12-30T09:54:48.077Z,100162.06
2023-12-30T09:59:52.953Z,100168.56
2023-12-30T10:04:54.671Z,100171.69
2023-12-30T10:09:57.284Z,100164.28
2023-12-30T10:14:58.665Z,100165.47
2023-12-30T10:20:00.113Z,100167.25
2023-12-30T10:25:03.460Z,100164.03
2023-12-30T10:30:05.977Z,100148.03
2023-12-30T10:35:07.511Z,100154.97
2023-12-30T10:40:10.949Z,100150.47
2023-12-30T10:45:12.607Z,100147.59
2023-12-30T10:50:14.991Z,100149.22
2023-12-30T10:55:20.897Z,100139.00
2023-12-30T11:00:27.019Z,100142.06
2023-12-30T11:05:33.348Z,100131.91
2023-12-30T11:10:35.480Z,100135.09
2023-12-30T11:15:40.871Z,100131.06
2023-12-30T11:20:49.175Z,100130.97
2023-12-30T11:25:52.451Z,100117.94
2023-12-30T11:31:04.286Z,100112.94
2023-12-30T11:36:06.666Z,100110.63
2023-12-30T11:41:08.304Z,100115.41
2023-12-30T11:46:12.199Z,100095.81
2023-12-30T11:51:39.609Z,100100.72
2023-12-30T11:56:41.623Z,100090.13
2023-12-30T12:01:48.839Z,100099.28
2023-12-30T12:06:50.254Z,100074.91
2023-12-30T12:11:51.514Z,100078.22
2023-12-30T12:16:53.435Z,100063.81
2023-12-30T12:22:00.465Z,100070.94
2023-12-30T12:27:01.946Z,100079.63
2023-12-30T12:32:05.296Z,100076.94
2023-12-30T12:37:06.807Z,100083.84
2023-12-30T12:42:14.970Z,100080.06
2023-12-30T12:52:50.045Z,100071.88
2023-12-30T12:57:51.726Z,100043.63
2023-12-30T13:02:53.806Z,100041.00
2023-12-30T13:07:55.265Z,100047.88
2023-12-30T13:12:59.134Z,100039.78
2023-12-30T13:18:01.124Z,100035.84
2023-12-30T13:23:06.382Z,100028.84
2023-12-30T13:28:07.953Z,100020.03
2023-12-30T13:33:12.127Z,100028.78
2023-12-30T13:38:14.407Z,100030.22
2023-12-30T13:43:17.531Z,100024.13
2023-12-30T13:48:58.727Z,100034.28
2023-12-30T13:54:01.009Z,100031.22
2023-12-30T13:59:09.025Z,100024.66
2023-12-30T14:04:12.376Z,100016.94
2023-12-30T14:09:35.342Z,100021.22
2023-12-30T14:14:44.117Z,100023.13
2023-12-30T14:19:45.499Z,100017.09
2023-12-30T14:24:47.894Z,100013.72
2023-12-30T14:29:52.576Z,100015.81
2023-12-30T14:34:54.908Z,100018.50
2023-12-30T14:39:56.501Z,100008.97
2023-12-30T14:44:57.822Z,100011.91
2023-12-30T14:49:59.360Z,100018.50
2023-12-30T14:55:04.628Z,100020.63
2023-12-30T15:00:14.721Z,100024.38
2023-12-30T15:05:22.773Z,100017.22
2023-12-30T15:10:24.602Z,100010.84
2023-12-30T15:15:26.207Z,100021.06
2023-12-30T15:20:29.091Z,99980.19
2023-12-30T15:25:32.403Z,100020.94
2023-12-30T15:30:33.742Z,100018.09
2023-12-30T15:35:36.385Z,100014.72
2023-12-30T15:40:41.631Z,100010.91
2023-12-30T15:45:43.222Z,100002.34
2023-12-30T15:50:47.551Z,100013.41
2023-12-30T15:55:52.427Z,100002.28
2023-12-30T16:00:56.171Z,100002.13
2023-12-30T16:05:57.733Z,99998.03
2023-12-30T16:10:59.368Z,99988.91
2023-12-30T16:16:02.412Z,99990.16
2023-12-30T16:21:05.433Z,99989.56
2023-12-30T16:26:08.937Z,99987.03
2023-12-30T16:31:11.509Z,99981.72
2023-12-30T16:36:13.166Z,99974.00
2023-12-30T16:41:14.806Z,99976.66
2023-12-30T16:46:20.034Z,99966.81
2023-12-30T16:51:21.712Z,99975.75
2023-12-30T16:56:23.061Z,99974.19
2023-12-30T17:01:24.368Z,99955.44
2023-12-30T17:06:27.347Z,99965.63
2023-12-30T17:11:28.632Z,99957.22
2023-12-30T17:16:29.989Z,99942.34
2023-12-30T17:21:32.066Z,99941.25
2023-12-30T17:26:34.815Z,99939.94
2023-12-30T17:31:36.216Z,99941.78
2023-12-30T17:36:37.769Z,99936.00
2023-12-30T17:41:39.331Z,99949.81
2023-12-30T17:46:40.985Z,99939.97
2023-12-30T17:51:43.414Z,99923.28
2023-12-30T17:56:44.718Z,99934.44
2023-12-30T18:01:46.458Z,99938.81
2023-12-30T18:06:48.207Z,99934.28
2023-12-30T18:11:51.761Z,99935.84
2023-12-30T18:16:53.149Z,99935.81
2023-12-30T18:21:59.847Z,99940.25
2023-12-30T18:27:01.205Z,99941.59
2023-12-30T18:32:05.909Z,99947.50
2023-12-30T18:37:08.577Z,99944.06
2023-12-30T18:42:10.513Z,99943.38
2023-12-30T18:47:12.667Z,99942.13
2023-12-30T18:52:15.649Z,99946.44
2023-12-30T18:57:17.948Z,99935.94
2023-12-30T19:02:19.352Z,99938.69
2023-12-30T19:07:21.131Z,99942.28
2023-12-30T19:12:27.504Z,99940.59
2023-12-30T19:17:30.552Z,99929.44
2023-12-30T19:22:31.924Z,99915.94
2023-12-30T19:27:34.216Z,99918.59
2023-12-30T19:32:35.727Z,99919.31
2023-12-30T19:37:37.761Z,99905.53
2023-12-30T19:42:40.217Z,99903.00
2023-12-30T19:47:44.065Z,99897.44
2023-12-30T19:52:45.641Z,99901.97
2023-12-30T19:57:50.282Z,99894.38
2023-12-30T20:02:52.300Z,99887.00
2023-12-30T20:07:54.403Z,99890.00
2023-12-30T20:12:57.123Z,99884.16
2023-12-30T20:17:59.050Z,99874.78
2023-12-30T20:23:01.700Z,99868.78
2023-12-30T20:28:03.803Z,99867.91
2023-12-30T20:33:05.765Z,99842.31
2023-12-30T20:38:07.814Z,99844.97
2023-12-30T20:43:09.436Z,99834.19
2023-12-30T20:48:10.786Z,99827.59
2023-12-30T20:53:14.256Z,99823.69
2023-12-30T20:58:15.614Z,99799.72
2023-12-30T21:03:17.188Z,99823.16
2023-12-30T21:08:20.420Z,99824.50
2023-12-30T21:13:22.131Z,99821.72
2023-12-30T21:18:23.557Z,99812.78
2023-12-30T21:23:25.362Z,99812.22
2023-12-30T21:28:32.121Z,99798.59
2023-12-30T21:33:35.118Z,99795.09
2023-12-30T21:38:39.480Z,99794.13
2023-12-30T21:43:41.000Z,99785.84
2023-12-30T21:48:42.878Z,99780.59
2023-12-30T21:53:45.033Z,99767.50
2023-12-30T21:58:46.725Z,99762.78
2023-12-30T22:03:48.192Z,99751.53
2023-12-30T22:08:49.813Z,99750.56
2023-12-30T22:13:52.388Z,99753.50
2023-12-30T22:18:54.022Z,99735.03
2023-12-30T22:23:55.687Z,99746.94
2023-12-30T22:28:57.180Z,99725.75
2023-12-30T22:33:58.876Z,99731.06
2023-12-30T22:39:00.575Z,99739.25
2023-12-30T22:44:02.050Z,99744.88
2023-12-30T22:49:03.762Z,99723.25
2023-12-30T22:54:07.295Z,99711.84
2023-12-30T22:59:08.944Z,99689.22
2023-12-30T23:04:10.362Z,99708.19
2023-12-30T23:09:13.291Z,99709.94
2023-12-30T23:14:14.707Z,99691.94
2023-12-30T23:19:17.838Z,99690.22
2023-12-30T23:24:19.158Z,99680.69
2023-12-30T23:29:21.261Z,99669.50
2023-12-30T23:34:24.912Z,99666.22
2023-12-30T23:39:34.957Z,99622.94
2023-12-30T23:44:37.137Z,99642.31
2023-12-30T23:49:39.721Z,99627.50
2023-12-30T23:54:41.125Z,99619.09
2023-12-30T23:59:42.699Z,99597.25
